createdAt,value
2018-09-05T00:00:09.846Z,64.73
2018-09-05T00:02:39.685Z,64.51
2018-09-05T00:05:10.283Z,64.82
2018-09-05T00:07:40.554Z,65.17
2018-09-05T00:10:10.641Z,65.40
2018-09-05T00:12:40.595Z,65.96
2018-09-05T00:15:10.770Z,66.06
2018-09-05T00:17:40.671Z,66.01
2018-09-05T00:20:10.518Z,65.97
2018-09-05T00:22:40.701Z,66.32
2018-09-05T00:25:10.810Z,66.58
2018-09-05T00:27:40.740Z,66.67
2018-09-05T00:30:10.774Z,66.29
2018-09-05T00:32:41.000Z,66.07
2018-09-05T00:35:11.246Z,66.29
2018-09-05T00:37:41.754Z,66.00
2018-09-05T00:40:12.037Z,66.01
2018-09-05T00:42:41.994Z,66.52
2018-09-05T00:45:11.824Z,66.42
2018-09-05T00:47:41.589Z,66.88
2018-09-05T00:50:11.752Z,67.06
2018-09-05T00:52:41.802Z,67.30
2018-09-05T00:55:11.622Z,67.79
2018-09-05T00:57:41.477Z,67.61
2018-09-05T01:00:11.521Z,67.78
2018-09-05T01:02:41.432Z,67.67
2018-09-05T01:05:11.557Z,67.92
2018-09-05T01:07:41.420Z,68.24
2018-09-05T01:10:11.512Z,68.40
2018-09-05T01:12:41.662Z,68.99
2018-09-05T01:15:11.617Z,68.95
2018-09-05T01:17:41.690Z,68.98
2018-09-05T01:20:11.653Z,69.12
2018-09-05T01:22:41.496Z,68.80
2018-09-05T01:25:11.671Z,68.72
2018-09-05T01:27:41.615Z,69.22
2018-09-05T01:30:11.616Z,68.75
2018-09-05T01:32:42.054Z,69.03
2018-09-05T01:35:11.785Z,69.04
2018-09-05T01:37:41.706Z,68.94
2018-09-05T01:40:11.589Z,69.21
2018-09-05T01:42:41.609Z,69.03
2018-09-05T01:45:11.712Z,69.42
2018-09-05T01:47:43.764Z,69.24
2018-09-05T01:50:13.914Z,69.52
2018-09-05T01:52:43.705Z,69.89
2018-09-05T01:55:13.502Z,70.26
2018-09-05T01:57:43.565Z,70.10
2018-09-05T02:00:17.444Z,71.04
2018-09-05T02:02:47.703Z,70.67
2018-09-05T02:05:17.428Z,70.47
2018-09-05T02:07:47.713Z,70.54
2018-09-05T02:10:17.544Z,70.16
2018-09-05T02:12:47.395Z,70.93
2018-09-05T02:15:17.677Z,70.93
2018-09-05T02:17:47.502Z,71.32
2018-09-05T02:20:18.051Z,71.52
2018-09-05T02:22:48.226Z,71.88
2018-09-05T02:25:18.294Z,72.02
2018-09-05T02:27:48.233Z,72.02
2018-09-05T02:30:18.066Z,72.54
2018-09-05T02:32:48.384Z,72.51
2018-09-05T02:35:18.199Z,72.74
2018-09-05T02:37:48.618Z,72.78
2018-09-05T02:40:18.487Z,72.42
2018-09-05T02:42:48.264Z,72.41
2018-09-05T02:46:09.958Z,72.36
2018-09-05T02:48:40.076Z,72.26
2018-09-05T02:51:09.950Z,72.27
2018-09-05T02:53:39.816Z,72.16
2018-09-05T02:56:09.703Z,72.01
2018-09-05T02:58:40.047Z,72.65
2018-09-05T03:01:09.842Z,72.78
2018-09-05T03:03:39.809Z,72.84
2018-09-05T03:06:09.653Z,73.44
2018-09-05T03:08:39.622Z,73.90
2018-09-05T03:11:09.670Z,73.78
2018-09-05T03:13:39.598Z,73.69
2018-09-05T03:16:09.608Z,73.52
2018-09-05T03:18:40.057Z,73.97
2018-09-05T03:21:09.906Z,74.03
2018-09-05T03:23:40.071Z,73.78
2018-09-05T03:26:09.874Z,73.85
2018-09-05T03:28:39.915Z,73.70
2018-09-05T03:31:09.654Z,73.66
2018-09-05T03:33:39.489Z,73.28
2018-09-05T03:36:09.573Z,73.88
2018-09-05T03:38:39.446Z,73.69
2018-09-05T03:41:09.572Z,73.88
2018-09-05T03:43:39.357Z,73.61
2018-09-05T03:46:09.550Z,73.94
2018-09-05T03:48:39.753Z,73.83
2018-09-05T03:51:12.513Z,73.38
2018-09-05T03:53:42.792Z,73.83
2018-09-05T03:56:12.561Z,73.25
2018-09-05T03:58:42.409Z,73.51
2018-09-05T04:01:13.966Z,73.93
2018-09-05T04:03:43.714Z,73.58
2018-09-05T04:06:17.605Z,74.26
2018-09-05T04:08:47.434Z,74.45
2018-09-05T04:11:17.520Z,74.08
2018-09-05T04:13:47.597Z,74.16
2018-09-05T04:16:17.432Z,74.24
2018-09-05T04:18:47.692Z,73.77
2018-09-05T04:21:17.611Z,73.68
2018-09-05T04:23:49.226Z,73.43
2018-09-05T04:26:20.169Z,74.43
2018-09-05T04:28:50.459Z,73.86
2018-09-05T04:31:20.493Z,73.84
2018-09-05T04:33:50.537Z,73.67
2018-09-05T04:36:20.768Z,74.01
2018-09-05T04:38:50.644Z,74.54
2018-09-05T04:41:20.670Z,74.29
2018-09-05T04:43:50.591Z,73.96
2018-09-05T04:46:20.753Z,74.02
2018-09-05T04:48:50.780Z,74.17
2018-09-05T04:51:20.492Z,74.43
2018-09-05T04:53:54.628Z,74.59
2018-09-05T04:56:24.601Z,74.80
2018-09-05T04:58:55.401Z,75.09
2018-09-05T05:01:25.661Z,75.18
2018-09-05T05:03:55.458Z,75.19
2018-09-05T05:06:25.532Z,75.40
2018-09-05T05:08:55.265Z,75.75
2018-09-05T05:11:25.717Z,75.46
2018-09-05T06:09:59.258Z,77.08
2018-09-05T06:12:28.992Z,76.87
2018-09-05T06:14:59.181Z,77.31
2018-09-05T06:17:29.181Z,77.41
2018-09-05T06:19:59.073Z,77.30
2018-09-05T06:22:29.644Z,77.87
2018-09-05T06:24:59.415Z,79.24
2018-09-05T06:27:29.573Z,77.90
2018-09-05T06:29:59.300Z,77.10
2018-09-05T06:32:29.104Z,76.89
2018-09-05T06:34:59.129Z,76.64
2018-09-05T06:37:29.141Z,77.58
2018-09-05T06:39:59.256Z,76.83
2018-09-05T06:42:29.398Z,75.91
2018-09-05T06:44:59.259Z,75.91
2018-09-05T06:47:29.250Z,75.37
2018-09-05T06:49:59.056Z,76.63
2018-09-05T06:52:29.418Z,77.36
2018-09-05T06:54:59.204Z,76.51
2018-09-05T06:57:29.237Z,76.13
2018-09-05T06:59:59.274Z,75.13
2018-09-05T07:02:29.669Z,75.64
2018-09-05T07:04:59.685Z,75.41
2018-09-05T07:07:29.792Z,76.10
2018-09-05T07:09:59.639Z,75.71
2018-09-05T07:12:29.675Z,75.62
2018-09-05T07:14:59.876Z,76.10
2018-09-05T07:17:30.136Z,75.20
2018-09-05T07:20:00.045Z,74.39
2018-09-05T07:22:32.057Z,74.36
2018-09-05T07:25:02.101Z,73.71
2018-09-05T07:27:32.181Z,74.03
2018-09-05T07:30:02.337Z,73.48
2018-09-05T07:32:32.660Z,74.42
2018-09-05T07:35:02.493Z,74.22
2018-09-05T07:37:32.283Z,73.27
2018-09-05T07:40:02.111Z,72.36
2018-09-05T07:42:32.328Z,72.20
2018-09-05T07:45:02.286Z,72.12
2018-09-05T07:47:32.147Z,71.51
2018-09-05T07:50:02.417Z,70.74
2018-09-05T07:52:32.152Z,70.11
2018-09-05T07:55:02.055Z,70.25
2018-09-05T07:57:32.175Z,70.64
2018-09-05T08:00:02.246Z,69.64
2018-09-05T08:02:32.076Z,69.01
2018-09-05T08:05:02.185Z,68.56
2018-09-05T08:07:32.079Z,67.99
2018-09-05T08:10:02.226Z,68.22
2018-09-05T08:12:32.168Z,67.83
2018-09-05T08:15:02.248Z,67.81
2018-09-05T08:17:32.290Z,67.44
2018-09-05T08:20:02.122Z,66.82
2018-09-05T08:22:32.237Z,66.22
2018-09-05T08:25:02.052Z,65.86
2018-09-05T08:27:32.005Z,65.77
2018-09-05T08:30:02.128Z,65.34
2018-09-05T08:32:32.029Z,63.76
2018-09-05T08:35:02.284Z,63.66
2018-09-05T08:37:32.389Z,62.73
2018-09-05T08:40:02.397Z,62.57
2018-09-05T08:42:34.390Z,61.89
2018-09-05T08:45:04.938Z,60.43
2018-09-05T08:47:35.141Z,60.68
2018-09-05T08:50:05.482Z,58.75
2018-09-05T08:52:35.397Z,57.91
2018-09-05T08:55:05.340Z,58.04
2018-09-05T08:57:35.387Z,58.26
2018-09-05T09:00:05.673Z,58.31
2018-09-05T09:02:35.456Z,57.03
2018-09-05T09:05:05.638Z,56.97
2018-09-05T09:07:35.818Z,55.56
2018-09-05T09:10:06.812Z,55.95
2018-09-05T09:12:36.723Z,54.90
2018-09-05T09:15:07.080Z,54.50
2018-09-05T09:17:37.179Z,53.29
2018-09-05T09:20:07.198Z,53.35
2018-09-05T09:22:37.386Z,53.19
2018-09-05T09:25:07.230Z,52.97
2018-09-05T09:27:37.282Z,52.02
2018-09-05T09:30:07.436Z,52.08
2018-09-05T09:32:37.438Z,51.59
2018-09-05T09:35:07.561Z,51.81
2018-09-05T09:37:37.760Z,51.88
2018-09-05T09:40:07.916Z,51.67
2018-09-05T09:42:38.174Z,51.00
2018-09-05T09:45:08.771Z,51.94
2018-09-05T09:47:39.038Z,51.19
2018-09-05T09:50:08.935Z,51.39
2018-09-05T09:52:39.480Z,51.34
2018-09-05T09:55:10.005Z,50.08
2018-09-05T09:57:39.832Z,49.52
2018-09-05T10:00:10.247Z,50.02
2018-09-05T10:02:44.872Z,50.15
2018-09-05T10:05:19.836Z,49.77
2018-09-05T10:07:55.033Z,50.61
2018-09-05T10:10:30.356Z,50.77
2018-09-05T10:13:05.261Z,51.76
2018-09-05T10:16:40.768Z,51.58
2018-09-05T10:19:12.073Z,50.37
2018-09-05T10:21:42.051Z,50.99
2018-09-05T10:24:12.818Z,50.18
2018-09-05T10:26:42.561Z,49.60
2018-09-05T10:29:12.337Z,49.04
2018-09-05T10:31:42.189Z,48.85
2018-09-05T10:34:12.222Z,47.69
2018-09-05T10:36:42.413Z,45.90
2018-09-05T10:39:12.452Z,46.63
2018-09-05T10:41:42.566Z,45.96
2018-09-05T10:44:12.421Z,46.36
2018-09-05T10:46:42.336Z,45.76
2018-09-05T10:49:12.273Z,45.40
2018-09-05T10:51:47.418Z,43.41
2018-09-05T10:54:17.553Z,43.68
2018-09-05T10:56:47.268Z,43.67
2018-09-05T10:59:17.042Z,43.45
2018-09-05T11:01:47.313Z,43.77
2018-09-05T11:04:17.077Z,42.26
2018-09-05T11:06:47.438Z,44.05
2018-09-05T11:09:17.190Z,44.30
2018-09-05T11:11:47.026Z,44.95
2018-09-05T11:14:17.955Z,45.29
2018-09-05T11:16:47.976Z,44.62
2018-09-05T11:19:18.462Z,43.53
2018-09-05T11:21:48.202Z,42.73
2018-09-05T11:24:18.147Z,42.91
2018-09-05T11:26:48.133Z,41.46
2018-09-05T11:29:18.070Z,41.04
2018-09-05T11:31:48.332Z,39.21
2018-09-05T11:34:18.101Z,38.23
2018-09-05T11:36:48.081Z,37.86
2018-09-05T11:39:18.329Z,39.10
2018-09-05T11:41:48.084Z,40.42
2018-09-05T11:44:18.275Z,40.83
2018-09-05T11:46:48.119Z,41.62
2018-09-05T11:49:18.074Z,41.53
2018-09-05T11:51:48.060Z,39.81
2018-09-05T11:54:18.066Z,39.24
2018-09-05T11:56:48.925Z,39.10
2018-09-05T11:59:18.944Z,37.37
2018-09-05T12:01:49.063Z,39.55
2018-09-05T12:04:19.261Z,39.04
2018-09-05T12:06:49.132Z,38.14
2018-09-05T12:09:19.062Z,40.03
2018-09-05T12:11:49.113Z,39.97
2018-09-05T12:14:18.945Z,40.89
2018-09-05T12:16:49.225Z,40.40
2018-09-05T12:19:19.071Z,39.58
2018-09-05T12:21:49.045Z,39.88
2018-09-05T12:24:19.163Z,40.11
2018-09-05T12:26:49.370Z,38.40
2018-09-05T12:29:19.482Z,37.16
2018-09-05T12:31:49.277Z,37.14
2018-09-05T12:34:19.048Z,37.03
2018-09-05T12:36:49.321Z,38.00
2018-09-05T12:39:19.122Z,37.93
2018-09-05T12:41:49.085Z,38.04
2018-09-05T12:44:19.234Z,38.67
2018-09-05T12:46:49.085Z,38.72
2018-09-05T12:49:19.050Z,37.83
2018-09-05T12:51:49.141Z,39.03
2018-09-05T12:54:19.249Z,39.24
2018-09-05T12:56:49.133Z,38.29
2018-09-05T12:59:19.094Z,36.59
2018-09-05T13:01:49.093Z,36.55
2018-09-05T13:04:19.424Z,36.03
2018-09-05T13:06:49.256Z,34.66
2018-09-05T13:09:19.476Z,35.90
2018-09-05T13:11:49.202Z,36.00
2018-09-05T13:14:19.538Z,35.50
2018-09-05T13:16:49.366Z,35.78
2018-09-05T13:19:19.189Z,35.88
2018-09-05T13:21:49.151Z,35.69
2018-09-05T13:24:19.099Z,35.18
2018-09-05T13:26:49.085Z,35.81
2018-09-05T13:29:19.262Z,35.83
2018-09-05T13:31:49.303Z,35.45
2018-09-05T13:34:19.128Z,35.03
2018-09-05T13:36:49.230Z,35.19
2018-09-05T13:39:19.187Z,33.96
2018-09-05T13:41:49.461Z,33.65
2018-09-05T13:44:19.525Z,33.58
2018-09-05T13:46:49.739Z,33.94
2018-09-05T13:49:19.674Z,34.44
2018-09-05T13:51:54.499Z,33.13
2018-09-05T13:54:24.533Z,33.34
2018-09-05T13:56:54.292Z,33.16
2018-09-05T13:59:24.158Z,32.72
2018-09-05T14:01:54.097Z,33.02
2018-09-05T14:04:24.312Z,33.49
2018-09-05T14:06:54.904Z,33.79
2018-09-05T14:09:24.974Z,32.87
2018-09-05T14:12:57.748Z,32.90
2018-09-05T14:15:27.497Z,33.23
2018-09-05T14:17:57.552Z,32.68
2018-09-05T14:20:27.541Z,32.85
2018-09-05T14:22:57.520Z,32.79
2018-09-05T14:25:27.440Z,32.28
2018-09-05T14:27:57.159Z,32.19
2018-09-05T14:30:27.080Z,31.52
2018-09-05T14:32:56.886Z,32.11
2018-09-05T14:35:26.787Z,31.71
2018-09-05T14:37:56.817Z,32.19
2018-09-05T14:40:26.534Z,31.87
2018-09-05T14:42:56.220Z,31.60
2018-09-05T14:45:26.093Z,32.80
2018-09-05T14:47:55.998Z,33.10
2018-09-05T14:50:26.214Z,33.28
2018-09-05T14:52:56.046Z,32.06
2018-09-05T14:55:26.087Z,32.63
2018-09-05T14:57:56.271Z,33.04
2018-09-05T15:00:25.948Z,33.38
2018-09-05T15:02:55.987Z,32.60
2018-09-05T15:05:26.162Z,32.52
2018-09-05T15:07:56.011Z,32.69
2018-09-05T15:10:26.173Z,32.22
2018-09-05T15:12:55.965Z,33.24
2018-09-05T15:15:25.920Z,33.22
2018-09-05T15:17:55.985Z,32.64
2018-09-05T15:20:26.117Z,32.75
2018-09-05T15:22:56.021Z,32.85
2018-09-05T15:25:26.160Z,32.87
2018-09-05T15:27:56.019Z,33.36
2018-09-05T15:30:26.402Z,33.14
2018-09-05T15:32:56.100Z,33.34
2018-09-05T15:35:25.998Z,33.91
2018-09-05T15:37:56.117Z,33.73
2018-09-05T15:40:26.070Z,33.70
2018-09-05T15:42:56.085Z,33.79
2018-09-05T15:45:26.096Z,33.80
2018-09-05T15:47:56.226Z,34.71
2018-09-05T15:50:26.255Z,35.04
2018-09-05T15:52:56.246Z,34.07
2018-09-05T15:55:26.175Z,35.04
2018-09-05T15:57:55.964Z,34.96
2018-09-05T16:00:26.325Z,34.08
2018-09-05T16:02:56.032Z,34.41
2018-09-05T16:05:26.352Z,34.37
2018-09-05T16:07:56.126Z,35.35
2018-09-05T16:10:25.959Z,36.25
2018-09-05T16:12:56.117Z,35.53
2018-09-05T16:15:26.103Z,35.75
2018-09-05T16:17:56.053Z,35.86
2018-09-05T16:20:26.257Z,36.04
2018-09-05T16:22:55.956Z,36.46
2018-09-05T16:25:26.056Z,36.99
2018-09-05T16:27:56.062Z,36.87
2018-09-05T16:30:26.051Z,37.53
2018-09-05T16:32:56.032Z,37.16
2018-09-05T16:35:26.223Z,36.89
2018-09-05T16:37:56.337Z,36.93
2018-09-05T16:40:33.820Z,37.10
2018-09-05T16:43:03.607Z,37.48
2018-09-05T16:45:33.329Z,37.38
2018-09-05T16:48:03.048Z,37.70
2018-09-05T16:50:33.005Z,37.69
2018-09-05T16:53:03.137Z,37.60
2018-09-05T16:55:33.233Z,38.09
2018-09-05T16:58:03.029Z,37.87
2018-09-05T17:00:33.027Z,38.32
2018-09-05T17:03:03.061Z,38.37
2018-09-05T17:05:33.057Z,38.19
2018-09-05T17:08:03.321Z,38.48
2018-09-05T17:10:33.022Z,39.00
2018-09-05T17:13:03.179Z,38.57
2018-09-05T17:15:33.287Z,39.36
2018-09-05T17:18:03.297Z,39.12
2018-09-05T17:20:33.215Z,39.21
2018-09-05T17:23:02.914Z,39.39
2018-09-05T17:25:32.633Z,39.78
2018-09-05T17:28:02.805Z,40.32
2018-09-05T17:30:32.526Z,40.21
2018-09-05T17:33:02.848Z,40.26
2018-09-05T17:35:32.545Z,40.76
2018-09-05T17:38:02.901Z,41.31
2018-09-05T17:40:32.695Z,41.17
2018-09-05T17:43:02.403Z,41.35
2018-09-05T17:45:33.325Z,41.62
2018-09-05T17:48:04.027Z,42.24
2018-09-05T17:50:35.019Z,42.46
2018-09-05T17:53:05.770Z,43.05
2018-09-05T17:55:37.315Z,43.04
2018-09-05T17:58:08.137Z,43.23
2018-09-05T18:00:39.305Z,43.51
2018-09-05T18:03:10.097Z,44.08
2018-09-05T18:05:41.013Z,45.09
2018-09-05T18:08:11.879Z,45.27
2018-09-05T18:10:43.816Z,45.16
2018-09-05T18:13:14.097Z,45.11
2018-09-05T18:15:51.422Z,44.89
2018-09-05T18:18:22.150Z,45.03
2018-09-05T18:20:52.386Z,45.52
2018-09-05T18:23:22.146Z,45.93
2018-09-05T18:25:51.958Z,47.80
2018-09-05T18:28:22.201Z,48.77
2018-09-05T18:30:52.024Z,49.66
2018-09-05T18:33:21.913Z,50.45
2018-09-05T18:35:52.827Z,51.63
2018-09-05T18:38:24.402Z,51.85
2018-09-05T18:40:56.338Z,52.10
2018-09-05T18:43:26.344Z,52.54
2018-09-05T18:45:57.768Z,52.68
2018-09-05T18:48:28.380Z,52.64
2018-09-05T18:50:58.961Z,53.05
2018-09-05T18:53:29.870Z,53.04
2018-09-05T18:56:01.267Z,53.68
2018-09-05T18:58:32.746Z,53.83
2018-09-05T19:01:02.992Z,54.04
2018-09-05T19:03:33.861Z,54.46
2018-09-05T19:06:04.894Z,54.29
2018-09-05T19:08:37.014Z,54.74
2018-09-05T19:11:06.727Z,54.87
2018-09-05T19:13:38.156Z,54.89
2018-09-05T19:16:08.880Z,55.66
2018-09-05T19:18:45.748Z,55.66
2018-09-05T19:21:15.662Z,56.51
2018-09-05T19:23:45.505Z,56.73
2018-09-05T19:26:15.244Z,56.12
2018-09-05T19:28:44.957Z,56.44
2018-09-05T19:31:15.861Z,56.73
2018-09-05T19:33:45.836Z,56.71
2018-09-05T19:36:17.497Z,57.12
2018-09-05T19:38:48.080Z,57.34
2018-09-05T19:41:19.251Z,57.39
2018-09-05T19:43:50.161Z,57.74
2018-09-05T19:46:21.235Z,57.83
2018-09-05T19:48:52.402Z,57.93
2018-09-05T19:51:24.009Z,58.77
2018-09-05T19:53:54.049Z,59.50
2018-09-05T19:56:24.834Z,59.24
2018-09-05T19:58:56.452Z,59.17
2018-09-05T20:01:27.952Z,58.93
2018-09-05T20:03:59.996Z,59.69
2018-09-05T20:06:29.818Z,59.50
2018-09-05T20:09:00.458Z,59.45
2018-09-05T20:11:31.068Z,59.65
2018-09-05T20:14:02.537Z,59.37
2018-09-05T20:16:34.148Z,58.60
2018-09-05T20:19:04.164Z,58.82
2018-09-05T20:21:40.918Z,58.44
2018-09-05T20:24:11.001Z,58.42
2018-09-05T20:26:40.787Z,58.20
2018-09-05T20:29:10.621Z,58.16
2018-09-05T20:31:40.535Z,57.70
2018-09-05T20:34:10.815Z,58.38
2018-09-05T20:36:40.827Z,58.01
2018-09-05T20:39:12.248Z,58.78
2018-09-05T20:41:42.561Z,58.46
2018-09-05T20:44:19.496Z,58.74
2018-09-05T20:46:50.118Z,59.54
2018-09-05T20:49:19.881Z,59.80
2018-09-05T20:51:49.985Z,60.23
2018-09-05T20:54:19.849Z,60.94
2018-09-05T20:56:49.611Z,61.54
2018-09-05T20:59:19.616Z,62.01
2018-09-05T21:01:50.123Z,61.94
2018-09-05T21:04:21.059Z,62.53
2018-09-05T21:06:52.001Z,62.42
2018-09-05T21:09:23.148Z,62.57
2018-09-05T21:11:54.837Z,63.71
2018-09-05T21:14:25.268Z,63.56
2018-09-05T21:16:56.049Z,63.77
2018-09-05T21:19:27.661Z,63.58
2018-09-05T21:21:58.317Z,64.06
2018-09-05T21:24:29.351Z,63.88
2018-09-05T21:27:00.400Z,63.81
2018-09-05T21:29:31.095Z,63.74
2018-09-05T21:32:01.635Z,63.64
2018-09-05T21:34:32.206Z,64.07
2018-09-05T21:37:03.390Z,64.44
2018-09-05T21:39:34.162Z,64.62
2018-09-05T21:42:05.194Z,64.79
2018-09-05T21:44:36.587Z,65.00
2018-09-05T21:47:07.264Z,64.57
2018-09-05T21:49:38.118Z,64.76
2018-09-05T21:52:09.046Z,64.74
2018-09-05T21:54:39.845Z,64.90
2018-09-05T21:57:11.153Z,65.48
2018-09-05T21:59:42.350Z,66.08
2018-09-05T22:02:13.603Z,65.95
2018-09-05T22:04:44.141Z,65.73
2018-09-05T22:07:14.918Z,66.48
2018-09-05T22:09:47.020Z,66.95
2018-09-05T22:12:17.097Z,66.86
2018-09-05T22:14:48.475Z,67.00
2018-09-05T22:17:19.006Z,66.52
2018-09-05T22:19:49.991Z,66.66
2018-09-05T22:22:21.441Z,66.74
2018-09-05T22:24:52.373Z,67.46
2018-09-05T22:27:22.917Z,67.07
2018-09-05T22:29:56.130Z,67.34
2018-09-05T22:32:26.045Z,67.27
2018-09-05T22:34:55.931Z,66.97
2018-09-05T22:37:27.070Z,67.07
2018-09-05T22:39:57.921Z,66.99
2018-09-05T22:42:28.897Z,67.13
2018-09-05T22:45:10.248Z,67.12
2018-09-05T22:47:54.840Z,67.39
2018-09-05T22:51:36.725Z,67.14
2018-09-05T22:55:26.302Z,67.50
2018-09-05T22:59:04.166Z,67.89
2018-09-05T23:01:41.674Z,67.76
2018-09-05T23:05:27.045Z,67.46
2018-09-05T23:08:43.775Z,67.31
2018-09-05T23:11:24.082Z,67.71
2018-09-05T23:15:06.815Z,67.41
2018-09-05T23:18:47.201Z,67.86
2018-09-05T23:21:20.430Z,67.80
2018-09-05T23:23:55.434Z,67.49
2018-09-05T23:26:25.533Z,67.94
2018-09-05T23:28:55.368Z,67.92
2018-09-05T23:31:25.752Z,68.63
2018-09-05T23:33:55.953Z,68.48
2018-09-05T23:36:26.454Z,68.58
2018-09-05T23:38:56.280Z,68.77
2018-09-05T23:41:26.092Z,68.88
2018-09-05T23:43:56.134Z,69.21
2018-09-05T23:46:26.365Z,69.52
2018-09-05T23:48:56.289Z,69.25
2018-09-05T23:51:26.101Z,69.63
2018-09-05T23:53:56.122Z,69.76
2018-09-05T23:56:26.657Z,70.04
2018-09-05T23:58:56.438Z,69.97
